Auk-Alfa, Netherlands

1:20 AM CEST on September 23, 2014 (GMT +0200)
Ekofisk | Change Station
CLOSE
Current Station
Airport
Location: Ekofisk,
Elevation: 10 ft
Nearby Weather Stations

Elev 10 ft 56.55 °N, 3.25 °E | Updated 30 minutes ago

Scattered Clouds
Scattered Clouds
54 °F
Feels Like 54 °F
N
14
Wind Variable Wind from West

Today
High -- | Low -- °F
--% Chance of Precip.
Yesterday
High -- | Low -- °F
Precip. -- in
7:38 AM 7:48 PM
Waning Crescent, 2% visible
Pressure 30.12 in
Visibility 6.2 miles
Clouds Scattered Clouds 2500 ft
Dew Point 45 °F
Humidity 72%
Rainfall 0.00 in
Snow Depth Not available.
UV 0 out of 12
Pollen Not available.
Air Quality Not available.
Flu Activity Not available.
METAR ENEK 222250Z 27012KT 9999 SCT025 12/07 Q1020 W15/S4

More Conditions Fewer Conditions

Pressure 30.12 in
Visibility 6.2 miles
Clouds Scattered Clouds 2500 ft
Dew Point 45 °F
Humidity 72%
Rainfall 0.00 in
Snow Depth Not available.
UV 0 out of 12
Pollen Not available.
Air Quality Not available.
Flu Activity Not available.
METAR ENEK 222250Z 27012KT 9999 SCT025 12/07 Q1020 W15/S4

More Conditions Fewer Conditions

10-Day Weather Forecast

Almanac

Astronomy

Sep. 23, 2014 Rise Set
Actual Time 7:38 AM CEST 7:48 PM CEST
Civil Twilight 7:00 AM CEST 8:26 PM CEST
Nautical Twilight 6:16 AM CEST 9:10 PM CEST
Astronomical Twilight 5:28 AM CEST 9:57 PM CEST
Moon 6:44 AM CEST (9/23) 7:18 PM CEST (9/23)
Length of Visible Light 13h 25m
Length of Day
12h 10m
Tomorrow will be 4m 41s shorter.
Waning Crescent, 2% of the Moon is Illuminated
Sep 22
Waning Crescent
Sep 24
New
Oct 1
First Quarter
Oct 8
Full
Oct 15
Last Quarter

Yesterday's Extremes

Country Highs Country Lows

Community

WunderPhotos

Upload Photos

1,755,548 photos uploaded!

Nearby

Snow Depth

Not available.

Earthquake Activity

City Distance Mag. Time & Date
No recent earthquake activity has been reported nearby.
Minimum magnitude displayed is 2.5.

Coastal Water Temperatures

Place Temperature
No Stations Reporting

Nearby Weather Stations